Latest Weather Observations for Port Lincoln Airport

IDS60801

Issued at 8:31 pm CST Tuesday 30 August 2016 (issued every 30 minutes, with the page automatically refreshed every 10 minutes)

About weather observations | Map of weather stations | Latest weather observations for SA | Other Formats
Station Details ID: 018192 Name: PORT LINCOLN AWS Lat: -34.60 Lon: 135.88 Height: 8.5 m
Data from the previous 72 hours. | See also: Recent months at Port Lincoln Airport
Date/Time
CST
Temp
°C
App
Temp
°C
Dew
Point
°C
Rel
Hum
%
Delta-T
°C
Wind Press
QNH
hPa
Press
MSL
hPa
Rain since
9am
mm
Dir  Spd
km/h
Gust
km/h
Spd
kts
Gust
kts
30/08:30pm 12.8 9.9 11.0 89 0.9 NW 17 20 9 11 1013.3 1013.3 0.0
30/08:00pm 12.5 10.3 10.7 89 0.9 NW 13 19 7 10 1012.8 1012.8 0.0
30/07:30pm 13.2 10.3 11.1 87 1.1 WNW 17 24 9 13 1012.6 1012.6 0.0
30/07:00pm 13.8 9.7 11.5 86 1.2 WNW 24 33 13 18 1012.3 1012.3 0.0
30/06:30pm 13.9 10.2 11.4 85 1.3 WNW 22 30 12 16 1011.9 1011.9 0.0
30/06:00pm 14.4 9.6 11.6 83 1.5 WNW 28 37 15 20 1011.5 1011.5 0.0
30/05:30pm 14.3 8.8 12.0 86 1.2 W 32 41 17 22 1010.8 1010.8 0.0
30/05:00pm 15.5 10.8 12.1 80 1.9 WNW 28 41 15 22 1010.4 1010.4 0.0
30/04:30pm 15.9 10.4 11.7 76 2.3 NW 32 43 17 23 1009.8 1009.8 0.0
30/04:00pm 16.9 10.4 11.8 72 2.8 NW 37 52 20 28 1009.6 1009.6 0.0
30/03:50pm 16.9 11.4 12.6 76 2.4 NW 33 52 18 28 1009.5 1009.5 0.0
30/03:30pm 17.3 10.1 11.8 70 3.0 NW 41 56 22 30 1009.5 1009.5 0.0
30/03:00pm 17.5 10.5 11.1 66 3.5 NW 39 50 21 27 1009.4 1009.4 0.0
30/02:30pm 18.3 12.4 12.3 68 3.3 WNW 35 50 19 27 1009.4 1009.4 0.0
30/02:00pm 18.2 12.3 12.4 69 3.2 NW 35 46 19 25 1009.4 1009.4 0.0
30/01:30pm 19.1 13.2 12.4 65 3.7 WNW 35 48 19 26 1009.3 1009.3 0.0
30/01:00pm 19.3 13.0 9.8 54 5.1 NW 33 44 18 24 1009.2 1009.2 0.0
30/12:42pm 20.5 15.3 10.3 52 5.5 NNW 28 46 15 25 1009.3 1009.3 0.0
30/12:30pm 20.0 13.8 9.3 50 5.7 NW 32 43 17 23 1009.4 1009.4 0.0
30/12:00pm 19.6 14.9 12.1 62 4.2 NW 28 37 15 20 1009.8 1009.8 0.0
30/11:30am 19.3 14.7 13.5 69 3.3 NW 30 39 16 21 1010.1 1010.1 0.0
30/11:00am 19.0 15.4 14.1 73 2.8 NNW 26 33 14 18 1010.1 1010.1 0.0
30/10:30am 18.0 13.5 12.5 70 3.1 NNW 28 37 15 20 1010.1 1010.1 0.0
30/10:00am 17.1 12.3 13.0 77 2.3 NNW 30 39 16 21 1010.1 1010.1 0.0
30/09:30am 15.8 11.0 12.9 83 1.6 NNW 30 39 16 21 1010.3 1010.3 0.0
30/09:00am 15.8 11.5 13.3 85 1.4 NNW 28 44 15 24 1010.4 1010.4 0.4
30/08:30am 15.1 11.1 13.1 88 1.1 NNW 26 35 14 19 1010.2 1010.2 0.4
30/08:00am 15.1 11.5 13.0 87 1.2 NNW 24 33 13 18 1009.9 1009.9 0.4
30/07:30am 14.1 9.9 12.5 90 0.9 NNW 26 35 14 19 1009.7 1009.7 0.4
30/07:00am 13.5 9.6 12.2 92 0.7 NNW 24 32 13 17 1009.6 1009.6 0.4
30/06:30am 13.2 10.1 12.1 93 0.6 NNW 20 26 11 14 1009.3 1009.3 0.4
30/06:00am 13.6 9.7 12.2 91 0.8 NNW 24 30 13 16 1009.2 1009.2 0.4
30/05:30am 13.7 10.8 12.4 92 0.7 NNW 19 28 10 15 1009.3 1009.3 0.4
30/05:00am 13.3 12.3 12.2 93 0.6 NNE 9 13 5 7 1009.3 1009.3 0.4
30/04:30am 13.6 13.2 12.5 93 0.6 N 6 9 3 5 1009.3 1009.3 0.4
30/04:00am 13.7 11.3 12.6 93 0.6 NNW 17 24 9 13 1008.8 1008.8 0.4
30/03:30am 11.7 10.9 11.1 96 0.3 E 6 9 3 5 1009.4 1009.4 0.4
30/03:00am 12.0 12.1 11.4 96 0.3 W 2 6 1 3 1009.7 1009.7 0.4
30/02:30am 12.5 11.0 11.9 96 0.3 NE 11 13 6 7 1010.3 1010.3 0.4
30/02:00am 12.6 11.5 11.8 95 0.4 NNE 9 13 5 7 1010.7 1010.7 0.4
30/01:30am 12.8 11.0 12.2 96 0.3 NNE 13 19 7 10 1010.8 1010.8 0.4
30/01:00am 13.2 11.8 12.1 93 0.6 NNE 11 17 6 9 1010.4 1010.4 0.4
30/12:30am 13.4 12.0 12.1 92 0.7 N 11 15 6 8 1010.6 1010.6 0.2
30/12:00am 13.4 12.3 12.0 91 0.8 N 9 13 5 7 1010.7 1010.7 0.0
 
Date/Time
CST
Temp
°C
App
Temp
°C
Dew
Point
°C
Rel
Hum
%
Delta-T
°C
Wind Press
QNH
hPa
Press
MSL
hPa
Rain since
9am
mm
Dir  Spd
km/h
Gust
km/h
Spd
kts
Gust
kts
29/11:30pm 13.7 12.9 11.8 88 1.0 N 7 11 4 6 1010.8 1010.8 0.0
29/11:00pm 13.8 13.3 12.0 89 1.0 NW 6 11 3 6 1010.7 1010.7 0.0
29/10:30pm 13.7 13.1 11.8 88 1.0 NNE 6 11 3 6 1010.4 1010.4 0.0
29/10:00pm 14.0 10.8 11.9 87 1.1 WSW 20 26 11 14 1010.3 1010.3 0.0
29/09:30pm 14.4 11.9 11.2 81 1.7 WSW 15 20 8 11 1009.7 1009.7 0.0
29/09:00pm 15.3 14.0 11.3 77 2.1 WSW 9 13 5 7 1010.0 1010.0 0.0
29/08:30pm 15.0 13.6 12.1 83 1.6 SW 11 20 6 11 1009.4 1009.4 0.0
29/08:00pm 15.1 14.1 12.4 84 1.5 SSE 9 13 5 7 1009.0 1009.0 0.0
29/07:30pm 15.4 15.2 12.9 85 1.4 S 6 9 3 5 1008.6 1008.6 0.0
29/07:00pm 16.1 15.8 12.7 80 1.9 W 6 7 3 4 1008.3 1008.3 0.0
29/06:30pm 17.0 16.6 12.3 74 2.6 NNE 6 9 3 5 1008.6 1008.6 0.0
29/06:00pm 17.7 16.7 12.4 71 2.9 WNW 9 13 5 7 1008.1 1008.1 0.0
29/05:30pm 18.3 16.0 11.8 66 3.6 N 15 19 8 10 1008.0 1008.0 0.0
29/05:00pm 18.9 16.6 11.7 63 4.0 N 15 20 8 11 1007.9 1007.9 0.0
29/04:30pm 19.7 17.0 11.7 60 4.4 N 17 24 9 13 1007.7 1007.7 0.0
29/04:00pm 20.5 18.0 11.2 55 5.1 N 15 20 8 11 1007.4 1007.4 0.0
29/03:30pm 20.6 17.2 11.2 55 5.2 N 20 28 11 15 1007.6 1007.6 0.0
29/03:00pm 20.6 15.7 10.1 51 5.7 N 26 37 14 20 1007.6 1007.6 0.0
29/02:30pm 21.5 16.5 9.7 47 6.4 N 26 35 14 19 1007.2 1007.2 0.0
29/02:00pm 22.1 17.9 9.9 46 6.6 N 22 32 12 17 1007.2 1007.2 0.0
29/01:30pm 22.4 18.7 11.5 50 6.1 N 22 30 12 16 1007.5 1007.5 0.0
29/01:00pm 21.9 17.8 11.6 52 5.7 N 24 32 13 17 1008.0 1008.0 0.0
29/12:30pm 21.2 16.2 9.4 47 6.3 N 26 35 14 19 1008.1 1008.1 0.0
29/12:00pm 20.8 15.4 9.4 48 6.1 N 28 41 15 22 1008.8 1008.8 0.0
29/11:30am 20.3 14.0 8.9 48 6.0 N 32 46 17 25 1009.0 1009.0 0.0
29/11:26am 20.4 15.0 9.6 50 5.8 N 28 43 15 23 1008.9 1008.9 0.0
29/11:00am 17.9 14.7 10.0 60 4.2 NNE 17 24 9 13 1009.4 1009.4 0.0
29/10:30am 18.2 14.8 9.0 55 4.8 NNE 17 30 9 16 1009.4 1009.4 0.0
29/10:00am 17.3 14.4 10.9 66 3.4 NNE 17 22 9 12 1009.6 1009.6 0.0
29/09:30am 16.5 14.0 11.2 71 2.9 NNE 15 22 8 12 1009.9 1009.9 0.0
29/09:00am 14.5 13.3 11.5 82 1.6 NNE 9 11 5 6 1010.2 1010.2 0.6
29/08:30am 12.9 11.4 10.4 85 1.3 NNE 9 11 5 6 1010.2 1010.2 0.6
29/08:00am 11.9 11.4 9.3 84 1.3 N 2 9 1 5 1009.9 1009.9 0.6
29/07:30am 12.0 10.8 9.6 85 1.2 NE 6 9 3 5 1009.9 1009.9 0.6
29/07:00am 12.4 10.8 10.3 87 1.1 NE 9 15 5 8 1009.7 1009.7 0.6
29/06:30am 12.4 12.0 11.0 91 0.7 WNW 4 9 2 5 1009.7 1009.7 0.6
29/06:00am 12.5 10.8 11.1 91 0.7 NNE 11 15 6 8 1009.3 1009.3 0.6
29/05:30am 12.6 10.1 11.0 90 0.8 NNE 15 20 8 11 1009.4 1009.4 0.6
29/05:00am 13.0 11.7 11.4 90 0.8 NNE 9 19 5 10 1009.3 1009.3 0.4
29/04:30am 12.9 12.5 11.1 89 0.9 E 4 11 2 6 1009.5 1009.5 0.4
29/04:00am 13.2 11.8 10.9 86 1.2 NE 9 11 5 6 1010.3 1010.3 0.2
29/03:30am 13.8 12.7 10.6 81 1.7 N 7 11 4 6 1010.1 1010.1 0.0
29/03:00am 14.0 12.6 10.8 81 1.7 NNE 9 13 5 7 1009.9 1009.9 0.0
29/02:30am 14.5 12.7 10.9 79 1.9 NNE 11 19 6 10 1010.0 1010.0 0.0
29/02:00am 14.5 14.8 10.9 79 1.9 CALM 0 6 0 3 1010.3 1010.3 0.0
29/01:30am 14.8 13.9 10.6 76 2.2 NE 6 15 3 8 1010.3 1010.3 0.0
29/01:00am 15.0 13.5 10.6 75 2.3 NNE 9 17 5 9 1010.6 1010.6 0.0
29/12:30am 15.0 13.5 10.4 74 2.4 N 9 13 5 7 1010.7 1010.7 0.0
29/12:00am 15.6 13.2 9.9 69 3.0 NNE 13 20 7 11 1010.7 1010.7 0.0
 
Date/Time
CST
Temp
°C
App
Temp
°C
Dew
Point
°C
Rel
Hum
%
Delta-T
°C
Wind Press
QNH
hPa
Press
MSL
hPa
Rain since
9am
mm
Dir  Spd
km/h
Gust
km/h
Spd
kts
Gust
kts
28/11:30pm 16.8 12.2 9.5 62 3.8 NNE 24 35 13 19 1010.9 1010.9 0.0
28/11:00pm 16.8 12.4 9.0 60 4.0 N 22 30 12 16 1011.2 1011.2 0.0
28/10:30pm 17.0 11.8 8.9 59 4.2 N 26 35 14 19 1010.9 1010.9 0.0
28/10:00pm 17.6 11.1 9.0 57 4.5 N 33 46 18 25 1010.3 1010.3 0.0
28/09:30pm 18.5 11.6 8.7 53 5.1 N 35 50 19 27 1010.4 1010.4 0.0
28/09:00pm 18.3 11.6 8.3 52 5.1 N 33 46 18 25 1010.1 1010.1 0.0
28/08:30pm 17.8 12.3 9.2 57 4.5 N 28 39 15 21 1010.0 1010.0 0.0
28/08:00pm 17.5 12.5 9.4 59 4.2 N 26 35 14 19 1009.7 1009.7 0.0
28/07:30pm 18.3 12.7 8.6 53 5.0 N 28 44 15 24 1009.7 1009.7 0.0
28/07:00pm 18.7 13.3 8.1 50 5.4 NNW 26 33 14 18 1009.6 1009.6 0.0
28/06:44pm 19.9 13.0 6.6 42 6.7 N 32 50 17 27 1009.5 1009.5 0.0
28/06:30pm 20.5 13.0 4.5 35 7.8 N 33 46 18 25 1009.3 1009.3 0.0
28/06:00pm 20.3 15.2 5.9 39 7.2 NNE 22 35 12 19 1008.8 1008.8 0.0
28/05:30pm 19.2 15.8 7.6 47 5.9 N 15 20 8 11 1008.6 1008.6 0.0
28/05:00pm 16.4 14.3 11.1 71 2.8 NNE 13 20 7 11 1008.4 1008.4 0.0
28/04:30pm 16.9 14.0 11.0 68 3.2 ENE 17 20 9 11 1007.7 1007.7 0.0
28/04:00pm 17.7 14.6 10.3 62 3.9 NE 17 26 9 14 1007.8 1007.8 0.0
28/03:30pm 17.7 14.2 10.3 62 4.0 NE 19 26 10 14 1007.4 1007.4 0.0
28/03:00pm 18.9 14.5 10.5 58 4.5 NE 24 33 13 18 1007.5 1007.5 0.0
28/02:30pm 19.3 14.2 10.6 57 4.7 ENE 28 35 15 19 1007.6 1007.6 0.0
28/02:00pm 20.1 16.5 9.9 52 5.5 ENE 19 24 10 13 1008.2 1008.2 0.0
28/01:30pm 19.8 16.6 10.0 53 5.3 ENE 17 22 9 12 1008.8 1008.8 0.0
28/01:00pm 20.1 17.0 8.8 48 5.9 NE 15 24 8 13 1009.3 1009.3 0.0
28/12:30pm 21.3 16.0 6.8 39 7.4 N 24 32 13 17 1009.9 1009.9 0.0
28/12:00pm 21.6 16.7 6.7 38 7.6 NNE 22 32 12 17 1010.5 1010.5 0.0
28/11:30am 21.2 16.2 8.1 43 6.8 NE 24 33 13 18 1011.0 1011.0 0.0
28/11:00am 20.6 16.2 6.5 40 7.1 NE 19 28 10 15 1011.4 1011.4 0.0
28/10:30am 20.0 16.4 6.7 42 6.7 NNE 15 22 8 12 1011.8 1011.8 0.0
28/10:00am 19.3 15.3 6.8 44 6.3 NE 17 24 9 13 1012.0 1012.0 0.0
28/09:30am 18.1 15.8 7.5 50 5.4 NNE 9 11 5 6 1012.4 1012.4 0.0
28/09:00am 16.8 14.2 6.3 50 5.1 NNE 9 13 5 7 1012.6 1012.6 0.0
28/08:30am 15.2 12.3 4.9 50 4.8 NE 9 13 5 7 1012.9 1012.9 0.0
28/08:00am 14.8 12.0 5.1 52 4.6 NE 9 13 5 7 1012.9 1012.9 0.0
28/07:30am 14.2 11.3 4.5 52 4.5 NE 9 15 5 8 1012.9 1012.9 0.0
28/07:00am 12.8 9.6 5.0 59 3.6 NE 11 13 6 7 1013.0 1013.0 0.0
28/06:30am 12.7 9.6 5.6 62 3.3 NE 11 13 6 7 1013.0 1013.0 0.0
28/06:00am 11.1 7.8 6.5 73 2.2 ENE 13 15 7 8 1013.0 1013.0 0.0
28/05:30am 11.5 8.4 7.4 76 2.0 ENE 13 17 7 9 1013.2 1013.2 0.0
28/05:00am 10.5 7.2 6.5 76 1.9 ENE 13 15 7 8 1013.1 1013.1 0.0
28/04:30am 10.7 7.8 4.8 67 2.7 NE 9 11 5 6 1013.1 1013.1 0.0
28/04:00am 10.5 8.1 4.2 65 2.8 NE 6 9 3 5 1013.3 1013.3 0.0
28/03:30am 10.8 7.8 4.3 64 2.9 NNE 9 9 5 5 1013.5 1013.5 0.0
28/03:00am 10.0 6.9 3.7 65 2.8 NNE 9 11 5 6 1013.8 1013.8 0.0
28/02:30am 11.6 8.9 3.9 59 3.4 NE 7 9 4 5 1014.3 1014.3 0.0
28/02:00am 11.8 9.2 4.1 59 3.5 NNE 7 13 4 7 1014.5 1014.5 0.0
28/01:30am 10.3 8.1 5.1 70 2.4 N 6 9 3 5 1014.7 1014.7 0.0
28/01:00am 10.1 7.5 4.3 67 2.6 N 7 9 4 5 1015.1 1015.1 0.0
28/12:30am 9.3 7.0 4.9 74 2.0 NNW 6 15 3 8 1015.4 1015.4 0.0
28/12:00am 10.8 8.0 5.1 68 2.6 N 9 13 5 7 1015.8 1015.8 0.0
 
Date/Time
CST
Temp
°C
App
Temp
°C
Dew
Point
°C
Rel
Hum
%
Delta-T
°C
Wind Press
QNH
hPa
Press
MSL
hPa
Rain since
9am
mm
Dir  Spd
km/h
Gust
km/h
Spd
kts
Gust
kts
27/11:30pm 10.8 7.9 4.9 67 2.7 N 9 11 5 6 1016.0 1016.0 0.0
27/11:00pm 9.8 8.3 5.2 73 2.1 N 2 9 1 5 1016.0 1016.0 0.0
27/10:30pm 10.9 8.2 5.7 70 2.4 NNE 9 11 5 6 1016.3 1016.3 0.0
27/10:00pm 11.1 9.6 5.2 67 2.7 NNE 2 7 1 4 1016.3 1016.3 0.0
27/09:30pm 11.1 8.9 5.2 67 2.7 N 6 11 3 6 1016.4 1016.4 0.0
27/09:00pm 9.4 7.2 6.1 80 1.5 N 7 9 4 5 1016.3 1016.3 0.0

Other Formats:

Comma delimited format used in spreadsheet applications
http://www.bom.gov.au/fwo/IDS60801/IDS60801.95661.axf

JavaScript Object Notation format (JSON) in row-major order
http://www.bom.gov.au/fwo/IDS60801/IDS60801.95661.json